createdAt,value
2023-01-13T00:01:27.785Z,5.68
2023-01-13T00:03:56.909Z,5.60
2023-01-13T00:06:26.347Z,5.15
2023-01-13T00:08:55.237Z,5.88
2023-01-13T00:11:24.605Z,5.85
2023-01-13T00:13:53.781Z,5.60
2023-01-13T00:16:22.471Z,6.35
2023-01-13T00:18:52.134Z,6.60
2023-01-13T00:21:22.013Z,6.85
2023-01-13T00:23:51.471Z,6.45
2023-01-13T00:26:22.067Z,5.82
2023-01-13T00:28:50.965Z,6.85
2023-01-13T00:31:20.617Z,7.85
2023-01-13T00:33:51.392Z,6.60
2023-01-13T00:36:20.806Z,6.85
2023-01-13T00:38:49.742Z,5.90
2023-01-13T00:41:19.390Z,5.65
2023-01-13T00:43:48.436Z,5.55
2023-01-13T00:46:18.420Z,5.90
2023-01-13T00:48:47.648Z,6.15
2023-01-13T00:51:17.615Z,7.05
2023-01-13T00:53:50.394Z,6.32
2023-01-13T00:56:30.541Z,5.68
2023-01-13T00:59:08.059Z,5.60
2023-01-13T01:01:37.639Z,6.22
2023-01-13T01:04:06.537Z,6.07
2023-01-13T01:06:35.033Z,6.03
2023-01-13T01:09:03.828Z,7.00
2023-01-13T01:11:33.305Z,7.68
2023-01-13T01:14:03.014Z,7.15
2023-01-13T01:16:32.284Z,6.45
2023-01-13T01:19:02.162Z,6.63
2023-01-13T01:21:30.587Z,7.03
2023-01-13T01:24:00.821Z,7.43
2023-01-13T01:26:29.696Z,6.95
2023-01-13T01:28:58.825Z,6.82
2023-01-13T01:31:28.581Z,6.82
2023-01-13T01:33:57.788Z,9.10
2023-01-13T01:36:27.118Z,6.55
2023-01-13T01:38:56.641Z,7.00
2023-01-13T01:41:26.640Z,7.40
2023-01-13T01:44:04.147Z,7.80
2023-01-13T01:46:38.692Z,6.60
2023-01-13T01:49:26.304Z,6.20
2023-01-13T01:52:07.663Z,6.00
2023-01-13T01:54:44.372Z,6.90
2023-01-13T01:57:14.996Z,6.80
2023-01-13T01:59:44.589Z,6.45
2023-01-13T02:02:14.251Z,6.55
2023-01-13T02:04:51.042Z,6.22
2023-01-13T02:07:21.687Z,6.90
2023-01-13T02:09:50.906Z,6.88
2023-01-13T02:12:34.915Z,6.60
2023-01-13T02:15:09.867Z,7.38
2023-01-13T02:17:43.855Z,7.00
2023-01-13T02:20:18.716Z,7.47
2023-01-13T02:22:50.192Z,8.57
2023-01-13T02:25:34.247Z,8.05
2023-01-13T02:28:23.062Z,8.23
2023-01-13T02:31:13.348Z,9.68
2023-01-13T02:33:57.115Z,8.20
2023-01-13T02:36:33.739Z,9.00
2023-01-13T02:39:05.276Z,10.32
2023-01-13T02:42:01.877Z,9.60
2023-01-13T02:44:33.005Z,9.43
2023-01-13T02:47:01.652Z,11.02
2023-01-13T02:49:36.844Z,10.40
2023-01-13T02:52:13.901Z,10.77
2023-01-13T02:54:45.245Z,9.93
2023-01-13T02:57:15.776Z,11.10
2023-01-13T02:59:44.417Z,10.25
2023-01-13T03:02:16.503Z,9.50
2023-01-13T03:04:47.402Z,9.68
2023-01-13T03:07:19.055Z,10.20
2023-01-13T03:09:56.439Z,9.35
2023-01-13T03:12:38.615Z,9.10
2023-01-13T03:15:06.932Z,8.70
2023-01-13T03:17:41.326Z,8.50
2023-01-13T03:20:14.202Z,8.40
2023-01-13T03:22:50.794Z,8.80
2023-01-13T03:25:19.385Z,8.43
2023-01-13T03:27:51.204Z,8.43
2023-01-13T03:30:19.544Z,9.35
2023-01-13T03:32:52.290Z,9.23
2023-01-13T03:35:28.724Z,8.40
2023-01-13T03:38:06.173Z,8.32
2023-01-13T03:40:36.734Z,9.15
2023-01-13T03:43:28.769Z,8.48
2023-01-13T03:45:59.491Z,8.05
2023-01-13T03:48:30.318Z,8.45
2023-01-13T03:51:01.858Z,8.80
2023-01-13T03:53:33.545Z,8.82
2023-01-13T03:56:08.566Z,8.85
2023-01-13T03:58:40.497Z,9.27
2023-01-13T04:01:21.275Z,9.10
2023-01-13T04:03:50.097Z,8.65
2023-01-13T04:06:24.554Z,8.70
2023-01-13T04:09:08.701Z,7.90
2023-01-13T04:11:40.744Z,8.38
2023-01-13T04:14:11.125Z,8.18
2023-01-13T04:16:39.715Z,7.88
2023-01-13T04:19:08.288Z,7.82
2023-01-13T04:21:36.707Z,8.50
2023-01-13T04:24:05.540Z,8.07
2023-01-13T04:26:33.913Z,7.57
2023-01-13T04:29:02.767Z,7.45
2023-01-13T04:31:31.097Z,7.05
2023-01-13T04:33:59.875Z,7.15
2023-01-13T04:36:28.536Z,7.28
2023-01-13T04:38:57.838Z,7.32
2023-01-13T04:41:26.390Z,7.53
2023-01-13T04:43:55.298Z,7.72
2023-01-13T04:46:24.290Z,7.28
2023-01-13T04:48:53.428Z,7.47
2023-01-13T04:51:21.898Z,7.72
2023-01-13T04:53:52.570Z,6.85
2023-01-13T04:56:20.988Z,6.68
2023-01-13T04:58:49.987Z,7.28
2023-01-13T05:01:19.685Z,6.97
2023-01-13T05:03:48.601Z,6.68
2023-01-13T05:06:16.855Z,6.50
2023-01-13T05:08:45.576Z,6.20
2023-01-13T05:11:32.602Z,6.40
2023-01-13T05:14:19.797Z,5.90
2023-01-13T05:17:03.566Z,6.60
2023-01-13T05:19:33.771Z,8.13
2023-01-13T05:22:21.432Z,6.72
2023-01-13T05:25:09.080Z,6.82
2023-01-13T05:27:37.494Z,6.95
2023-01-13T05:30:06.753Z,7.28
2023-01-13T05:32:35.041Z,6.43
2023-01-13T05:35:03.727Z,6.88
2023-01-13T05:37:32.188Z,5.43
2023-01-13T05:40:19.714Z,5.43
2023-01-13T05:43:06.902Z,5.78
2023-01-13T05:45:35.958Z,5.95
2023-01-13T05:48:04.506Z,6.38
2023-01-13T05:50:33.153Z,6.75
2023-01-13T05:53:06.933Z,6.15
2023-01-13T05:55:35.748Z,5.85
2023-01-13T05:58:04.120Z,5.60
2023-01-13T06:00:33.144Z,8.10
2023-01-13T06:03:01.527Z,7.82
2023-01-13T06:05:30.571Z,6.10
2023-01-13T06:08:02.053Z,8.82
2023-01-13T06:10:30.904Z,7.28
2023-01-13T06:12:59.344Z,11.85
2023-01-13T06:15:28.104Z,6.00
2023-01-13T06:17:57.297Z,6.07
2023-01-13T06:20:25.975Z,5.28
2023-01-13T06:22:54.834Z,13.25
2023-01-13T06:25:26.817Z,7.60
2023-01-13T06:27:55.648Z,5.20
2023-01-13T06:30:24.444Z,5.22
2023-01-13T06:32:54.150Z,5.10
2023-01-13T06:35:26.386Z,6.20
2023-01-13T06:37:56.157Z,13.77
2023-01-13T06:40:25.122Z,6.22
2023-01-13T06:43:16.144Z,6.75
2023-01-13T06:45:55.999Z,5.88
2023-01-13T06:48:26.064Z,8.65
2023-01-13T06:51:08.066Z,12.57
2023-01-13T06:53:36.597Z,28.65
2023-01-13T06:56:07.636Z,27.40
2023-01-13T07:01:42.345Z,17.38
2023-01-13T07:04:11.752Z,14.55
2023-01-13T07:06:40.469Z,15.05
2023-01-13T07:09:08.776Z,12.52
2023-01-13T07:11:37.404Z,11.93
2023-01-13T07:14:24.563Z,11.27
2023-01-13T07:16:54.272Z,10.73
2023-01-13T07:19:24.013Z,10.48
2023-01-13T07:21:53.135Z,12.73
2023-01-13T07:24:22.574Z,10.57
2023-01-13T07:26:52.559Z,10.35
2023-01-13T07:29:21.254Z,14.30
2023-01-13T07:31:50.482Z,8.82
2023-01-13T07:34:18.719Z,12.57
2023-01-13T07:36:47.667Z,30.65
2023-01-13T07:39:16.066Z,15.80
2023-01-13T07:42:03.143Z,12.27
2023-01-13T07:44:31.643Z,16.42
2023-01-13T07:47:00.426Z,15.20
2023-01-13T07:49:28.723Z,12.63
2023-01-13T07:51:57.325Z,13.32
2023-01-13T07:54:39.733Z,20.98
2023-01-13T07:57:09.618Z,11.88
2023-01-13T07:59:37.809Z,16.08
2023-01-13T08:02:06.659Z,10.60
2023-01-13T08:04:35.106Z,8.65
2023-01-13T08:07:04.734Z,9.60
2023-01-13T08:09:33.057Z,11.43
2023-01-13T08:12:20.246Z,10.00
2023-01-13T08:14:50.292Z,7.82
2023-01-13T08:17:20.541Z,7.63
2023-01-13T08:19:49.056Z,8.65
2023-01-13T08:22:17.566Z,8.65
2023-01-13T08:24:45.732Z,9.93
2023-01-13T08:27:14.370Z,8.10
2023-01-13T08:29:42.747Z,8.55
2023-01-13T08:32:11.459Z,8.70
2023-01-13T08:34:39.760Z,9.27
2023-01-13T08:37:08.621Z,8.93
2023-01-13T08:39:37.006Z,10.32
2023-01-13T08:46:51.693Z,13.30
2023-01-13T08:49:20.396Z,7.97
2023-01-13T08:51:50.204Z,6.90
2023-01-13T08:54:19.262Z,7.18
2023-01-13T08:56:48.301Z,7.82
2023-01-13T08:59:17.851Z,7.32
2023-01-13T09:01:46.747Z,8.27
2023-01-13T09:04:19.852Z,7.10
2023-01-13T09:06:48.645Z,7.10
2023-01-13T09:09:17.192Z,6.93
2023-01-13T09:12:09.256Z,6.32
2023-01-13T09:14:39.167Z,7.75
2023-01-13T09:17:08.737Z,6.97
2023-01-13T09:19:37.369Z,7.00
2023-01-13T09:22:06.011Z,7.88
2023-01-13T09:24:34.374Z,9.07
2023-01-13T09:27:02.990Z,7.53
2023-01-13T09:29:31.353Z,8.68
2023-01-13T09:32:00.152Z,7.00
2023-01-13T09:34:47.124Z,7.30
2023-01-13T09:37:15.998Z,8.25
2023-01-13T09:39:44.502Z,7.72
2023-01-13T09:42:50.903Z,23.73
2023-01-13T09:45:19.243Z,7.85
2023-01-13T09:47:57.838Z,13.23
2023-01-13T09:50:45.095Z,8.52
2023-01-13T09:53:19.099Z,10.00
2023-01-13T09:55:48.009Z,15.10
2023-01-13T09:58:18.587Z,9.18
2023-01-13T10:00:51.956Z,9.20
2023-01-13T10:03:25.973Z,12.00
2023-01-13T10:08:58.372Z,14.85
2023-01-13T10:11:49.466Z,8.85
2023-01-13T10:14:24.430Z,9.75
2023-01-13T10:17:12.035Z,11.80
2023-01-13T10:20:03.807Z,16.77
2023-01-13T10:22:46.571Z,16.40
2023-01-13T10:25:38.387Z,14.38
2023-01-13T10:28:11.099Z,14.32
2023-01-13T10:30:41.441Z,22.80
2023-01-13T10:33:14.829Z,37.63
2023-01-13T10:35:59.977Z,25.23
2023-01-13T10:38:30.326Z,26.88
2023-01-13T10:41:02.368Z,13.40
2023-01-13T10:43:31.203Z,15.88
2023-01-13T10:46:01.588Z,28.92
2023-01-13T10:48:40.881Z,17.02
2023-01-13T10:51:31.388Z,31.58
2023-01-13T10:53:59.650Z,17.83
2023-01-13T10:56:30.926Z,9.68
2023-01-13T10:59:14.968Z,15.00
2023-01-13T11:01:45.176Z,25.75
2023-01-13T11:04:36.328Z,22.55
2023-01-13T11:07:07.255Z,8.80
2023-01-13T11:09:35.609Z,9.27
2023-01-13T11:12:04.261Z,8.95
2023-01-13T11:14:41.886Z,8.20
2023-01-13T11:17:17.917Z,6.60
2023-01-13T11:19:54.337Z,8.07
2023-01-13T11:22:40.771Z,10.55
2023-01-13T11:25:14.165Z,22.55
2023-01-13T11:27:48.235Z,22.38
2023-01-13T11:30:19.011Z,13.80
2023-01-13T11:33:01.585Z,13.60
2023-01-13T11:35:33.066Z,15.10
2023-01-13T11:38:23.950Z,11.65
2023-01-13T11:40:54.869Z,18.58
2023-01-13T11:43:44.702Z,18.20
2023-01-13T11:46:15.348Z,14.55
2023-01-13T11:48:46.707Z,10.95
2023-01-13T11:51:24.883Z,10.85
2023-01-13T11:54:07.267Z,19.73
2023-01-13T11:56:41.289Z,18.05
2023-01-13T11:59:31.337Z,22.75
2023-01-13T12:02:21.157Z,12.88
2023-01-13T12:05:11.810Z,13.02
2023-01-13T12:08:11.285Z,10.90
2023-01-13T12:11:00.795Z,11.07
2023-01-13T12:13:51.695Z,11.00
2023-01-13T12:16:30.765Z,9.13
2023-01-13T12:18:59.843Z,11.73
2023-01-13T12:21:33.243Z,10.50
2023-01-13T12:24:01.632Z,9.20
2023-01-13T12:26:34.693Z,11.40
2023-01-13T12:29:19.086Z,10.88
2023-01-13T12:31:50.149Z,10.07
2023-01-13T12:34:44.060Z,12.07
2023-01-13T12:37:31.811Z,10.70
2023-01-13T12:40:36.067Z,17.00
2023-01-13T12:43:31.447Z,14.30
2023-01-13T12:46:18.726Z,11.73
2023-01-13T12:48:49.307Z,10.85
2023-01-13T12:54:50.355Z,13.52
2023-01-13T13:01:16.850Z,13.05
2023-01-13T13:04:11.115Z,9.10
2023-01-13T13:06:44.011Z,10.45
2023-01-13T13:09:22.315Z,8.98
2023-01-13T13:11:59.643Z,8.77
2023-01-13T13:14:40.173Z,9.27
2023-01-13T13:18:30.378Z,9.00
2023-01-13T13:21:09.514Z,9.15
2023-01-13T13:23:55.399Z,9.82
2023-01-13T13:26:47.103Z,9.77
2023-01-13T13:29:32.596Z,12.90
2023-01-13T13:32:12.135Z,9.27
2023-01-13T13:35:18.138Z,10.90
2023-01-13T13:38:33.432Z,14.82
2023-01-13T13:41:32.125Z,9.15
2023-01-13T13:44:26.849Z,9.65
2023-01-13T13:47:00.477Z,8.02
2023-01-13T13:49:52.753Z,12.60
2023-01-13T13:53:01.666Z,9.63
2023-01-13T13:55:41.803Z,8.45
2023-01-13T13:58:18.283Z,9.93
2023-01-13T14:00:49.320Z,10.55
2023-01-13T14:03:36.705Z,8.73
2023-01-13T14:06:21.032Z,12.20
2023-01-13T14:09:20.515Z,11.05
2023-01-13T14:12:25.026Z,7.97
2023-01-13T14:14:57.156Z,12.05
2023-01-13T14:17:27.226Z,10.88
2023-01-13T14:20:14.857Z,8.25
2023-01-13T14:22:56.587Z,8.65
2023-01-13T14:25:33.525Z,9.68
2023-01-13T14:28:20.881Z,13.50
2023-01-13T14:33:43.463Z,13.50
2023-01-13T14:36:24.032Z,13.02
2023-01-13T14:39:05.574Z,18.00
2023-01-13T14:41:40.873Z,35.60
2023-01-13T14:44:26.050Z,24.90
2023-01-13T14:46:59.598Z,28.48
2023-01-13T14:49:36.015Z,56.40
2023-01-13T14:54:41.817Z,27.05
2023-01-13T14:57:23.258Z,47.03
2023-01-13T15:00:17.249Z,28.42
2023-01-13T15:03:09.076Z,18.42
2023-01-13T15:05:52.656Z,11.35
2023-01-13T15:08:43.820Z,11.23
2023-01-13T15:11:24.928Z,10.38
2023-01-13T15:14:16.248Z,16.40
2023-01-13T15:17:18.022Z,14.93
2023-01-13T15:19:55.948Z,14.75
2023-01-13T15:22:29.707Z,17.83
2023-01-13T15:24:59.419Z,19.40
2023-01-13T15:27:29.697Z,16.95
2023-01-13T15:30:03.208Z,14.82
2023-01-13T15:32:32.319Z,23.60
2023-01-13T15:35:03.176Z,41.25
2023-01-13T15:37:31.320Z,32.53
2023-01-13T15:40:05.252Z,32.30
2023-01-13T15:43:04.954Z,35.75
2023-01-13T15:45:56.320Z,21.52
2023-01-13T15:48:28.137Z,28.45
2023-01-13T15:50:57.915Z,29.85
2023-01-13T15:53:27.152Z,21.95
2023-01-13T15:55:58.470Z,32.83
2023-01-13T15:59:23.563Z,33.38
2023-01-13T16:02:19.938Z,17.02
2023-01-13T16:04:56.627Z,29.42
2023-01-13T16:07:46.403Z,16.00
2023-01-13T16:10:28.590Z,13.27
2023-01-13T16:13:14.088Z,23.65
2023-01-13T16:16:06.202Z,112.35
2023-01-13T16:18:34.314Z,46.92
2023-01-13T16:26:37.060Z,28.35
2023-01-13T16:29:25.018Z,27.30
2023-01-13T16:31:58.981Z,19.40
2023-01-13T16:34:28.938Z,18.92
2023-01-13T16:38:05.389Z,24.92
2023-01-13T16:40:56.337Z,23.30
2023-01-13T16:43:25.418Z,19.45
2023-01-13T16:45:54.311Z,18.88
2023-01-13T16:48:22.993Z,12.60
2023-01-13T16:50:52.828Z,12.88
2023-01-13T16:53:40.955Z,15.40
2023-01-13T16:56:26.520Z,19.77
2023-01-13T16:58:59.265Z,13.40
2023-01-13T17:01:31.563Z,13.75
2023-01-13T17:08:53.873Z,19.73
2023-01-13T17:11:22.441Z,16.17
2023-01-13T17:13:51.468Z,20.27
2023-01-13T17:16:22.242Z,31.23
2023-01-13T17:21:35.218Z,26.50
2023-01-13T17:24:16.935Z,31.63
2023-01-13T17:26:50.700Z,36.10
2023-01-13T17:32:41.439Z,15.38
2023-01-13T17:35:25.224Z,16.65
2023-01-13T17:37:55.090Z,14.35
2023-01-13T17:40:24.407Z,12.07
2023-01-13T17:42:53.131Z,16.38
2023-01-13T17:45:27.349Z,21.02
2023-01-13T17:47:58.509Z,24.95
2023-01-13T17:50:31.178Z,34.38
2023-01-13T17:52:59.885Z,22.45
2023-01-13T17:55:30.239Z,15.57
2023-01-13T17:57:58.552Z,15.65
2023-01-13T18:00:30.811Z,16.80
2023-01-13T18:02:58.972Z,16.63
2023-01-13T18:05:28.036Z,18.15
2023-01-13T18:07:56.984Z,18.10
2023-01-13T18:10:26.049Z,19.92
2023-01-13T18:12:56.561Z,18.38
2023-01-13T18:15:59.839Z,18.65
2023-01-13T18:18:32.446Z,25.67
2023-01-13T18:21:20.530Z,24.67
2023-01-13T18:24:08.010Z,20.42
2023-01-13T18:26:55.348Z,21.20
2023-01-13T18:29:25.109Z,25.92
2023-01-13T18:31:56.572Z,20.08
2023-01-13T18:34:53.976Z,22.85
2023-01-13T18:37:27.723Z,24.45
2023-01-13T18:39:56.108Z,23.92
2023-01-13T18:42:43.518Z,19.63
2023-01-13T18:45:12.360Z,19.90
2023-01-13T18:48:01.705Z,21.88
2023-01-13T18:50:29.920Z,19.50
2023-01-13T18:52:59.398Z,14.45
2023-01-13T18:55:28.836Z,42.67
2023-01-13T18:58:01.634Z,27.17
2023-01-13T19:00:39.323Z,20.08
2023-01-13T19:03:12.992Z,23.10
2023-01-13T19:05:41.577Z,18.35
2023-01-13T19:08:10.080Z,16.75
2023-01-13T19:10:39.775Z,17.60
2023-01-13T19:13:22.399Z,16.13
2023-01-13T19:15:51.038Z,20.10
2023-01-13T19:18:22.153Z,31.20
2023-01-13T19:20:59.970Z,21.20
2023-01-13T19:23:33.110Z,14.65
2023-01-13T19:26:09.512Z,15.25
2023-01-13T19:28:40.450Z,21.15
2023-01-13T19:31:11.310Z,18.38
2023-01-13T19:33:42.777Z,17.30
2023-01-13T19:36:11.446Z,14.05
2023-01-13T19:38:45.449Z,18.13
2023-01-13T19:41:51.135Z,17.52
2023-01-13T19:45:11.247Z,23.20
2023-01-13T19:47:42.716Z,51.85
2023-01-13T19:50:15.900Z,32.90
2023-01-13T19:52:44.693Z,19.20
2023-01-13T19:55:13.808Z,16.98
2023-01-13T19:57:41.891Z,22.00
2023-01-13T20:00:11.196Z,24.85
2023-01-13T20:02:48.006Z,19.73
2023-01-13T20:05:21.485Z,48.70
2023-01-13T20:07:58.854Z,38.50
2023-01-13T20:10:30.700Z,24.13
2023-01-13T20:13:00.419Z,28.73
2023-01-13T20:15:29.652Z,27.83
2023-01-13T20:18:08.113Z,14.15
2023-01-13T20:20:37.763Z,12.90
2023-01-13T20:23:08.475Z,14.32
2023-01-13T20:25:43.908Z,12.15
2023-01-13T20:28:12.058Z,11.55
2023-01-13T20:30:40.709Z,12.68
2023-01-13T20:33:09.384Z,16.85
2023-01-13T20:35:38.746Z,17.98
2023-01-13T20:38:07.437Z,33.00
2023-01-13T20:40:35.950Z,14.70
2023-01-13T20:43:10.551Z,13.35
2023-01-13T20:45:42.232Z,11.97
2023-01-13T20:48:30.079Z,13.50
2023-01-13T20:51:15.996Z,9.35
2023-01-13T20:53:44.182Z,18.58
2023-01-13T20:56:14.497Z,9.93
2023-01-13T20:58:44.094Z,11.18
2023-01-13T21:01:12.556Z,10.63
2023-01-13T21:03:41.625Z,11.13
2023-01-13T21:06:10.584Z,8.77
2023-01-13T21:08:38.903Z,12.30
2023-01-13T21:11:10.655Z,11.43
2023-01-13T21:14:47.170Z,16.83
2023-01-13T21:17:38.832Z,31.02
2023-01-13T21:20:18.531Z,30.77
2023-01-13T21:22:51.465Z,18.63
2023-01-13T21:26:20.075Z,12.15
2023-01-13T21:29:58.009Z,13.18
2023-01-13T21:33:26.420Z,10.52
2023-01-13T21:36:11.290Z,16.02
2023-01-13T21:39:01.291Z,14.00
2023-01-13T21:41:48.495Z,12.02
2023-01-13T21:44:42.162Z,13.38
2023-01-13T21:47:36.321Z,10.00
2023-01-13T21:50:09.577Z,10.32
2023-01-13T21:53:18.893Z,11.32
2023-01-13T21:55:52.141Z,10.48
2023-01-13T21:58:20.665Z,10.45
2023-01-13T22:02:23.960Z,9.52
2023-01-13T22:04:52.641Z,11.35
2023-01-13T22:07:22.012Z,13.35
2023-01-13T22:09:51.289Z,15.13
2023-01-13T22:12:24.425Z,12.88
2023-01-13T22:14:53.452Z,9.98
2023-01-13T22:17:22.992Z,8.02
2023-01-13T22:19:54.526Z,10.07
2023-01-13T22:22:23.510Z,10.65
2023-01-13T22:24:58.286Z,8.82
2023-01-13T22:27:29.191Z,9.90
2023-01-13T22:30:02.260Z,7.53
2023-01-13T22:33:26.340Z,9.30
2023-01-13T22:36:03.259Z,13.60
2023-01-13T22:38:33.714Z,12.73
2023-01-13T22:41:08.174Z,10.60
2023-01-13T22:43:38.042Z,9.50
2023-01-13T22:46:26.534Z,8.50
2023-01-13T22:48:55.976Z,5.88
2023-01-13T22:51:25.285Z,6.78
2023-01-13T22:53:55.480Z,6.75
2023-01-13T22:56:25.516Z,6.68
2023-01-13T22:59:24.649Z,8.55
2023-01-13T23:01:53.043Z,10.32
2023-01-13T23:04:21.381Z,6.38
2023-01-13T23:09:34.859Z,6.35
2023-01-13T23:12:03.312Z,6.45
2023-01-13T23:14:31.375Z,6.95
2023-01-13T23:16:59.694Z,6.53
2023-01-13T23:19:27.817Z,7.90
2023-01-13T23:21:56.032Z,7.32
2023-01-13T23:27:14.536Z,7.20
2023-01-13T23:29:43.328Z,10.73
2023-01-13T23:32:11.906Z,11.98
2023-01-13T23:34:40.327Z,7.75
2023-01-13T23:37:08.856Z,9.75
2023-01-13T23:39:37.738Z,6.70
2023-01-13T23:42:06.446Z,5.80
2023-01-13T23:44:38.004Z,6.70
2023-01-13T23:47:09.862Z,5.30
2023-01-13T23:49:38.109Z,7.15
2023-01-13T23:52:09.452Z,23.95
2023-01-13T23:54:40.232Z,11.82
2023-01-13T23:57:08.795Z,6.22
2023-01-13T23:59:37.910Z,11.48
